| time (UTC) | temp F | wind direction | speed MPH | gust MPH | rain 1hr in | rain 24hr in | rain mn in | humidity % | barometer mb |
| 20260506192533 | 62 | 0 | 1.0 | 6.0 | 0.00 | 0.14 | 0.14 | 90 | 1007.9 |
| 20260506192031 | 62 | 0 | 1.0 | 6.0 | 0.00 | 0.14 | 0.14 | 90 | 1008.0 |
| 20260506191541 | 62 | 192 | 2.0 | 6.0 | 0.00 | 0.14 | 0.14 | 89 | 1008.0 |
| 20260506191032 | 62 | 192 | 1.0 | 5.0 | 0.00 | 0.14 | 0.14 | 89 | 1008.0 |
| 20260506190532 | 62 | 215 | 2.0 | 7.0 | 0.00 | 0.14 | 0.14 | 89 | 1008.2 |
| 20260506190052 | 62 | 186 | 2.0 | 7.0 | 0.00 | 0.14 | 0.14 | 88 | 1008.3 |
| 20260506185534 | 62 | 207 | 3.0 | 6.0 | 0.00 | 0.14 | 0.14 | 88 | 1008.2 |
| 20260506185031 | 62 | 0 | 2.0 | 6.0 | 0.00 | 0.14 | 0.14 | 88 | 1008.2 |
| 20260506184550 | 62 | 200 | 2.0 | 5.0 | 0.01 | 0.14 | 0.14 | 88 | 1008.1 |
| 20260506184035 | 62 | 172 | 2.0 | 6.0 | 0.01 | 0.14 | 0.14 | 88 | 1008.2 |
| 20260506183534 | 62 | 200 | 1.0 | 6.0 | 0.01 | 0.14 | 0.14 | 88 | 1008.1 |
| 20260506183103 | 62 | 198 | 3.0 | 7.0 | 0.01 | 0.14 | 0.14 | 88 | 1008.1 |
| 20260506182533 | 62 | 232 | 2.0 | 7.0 | 0.01 | 0.14 | 0.14 | 88 | 1008.1 |
| 20260506182030 | 62 | 198 | 2.0 | 7.0 | 0.01 | 0.14 | 0.14 | 88 | 1008.1 |
| 20260506181556 | 62 | 311 | 4.0 | 7.0 | 0.01 | 0.14 | 0.14 | 88 | 1008.2 |
| 20260506181034 | 62 | 193 | 2.0 | 7.0 | 0.01 | 0.14 | 0.14 | 88 | 1008.3 |
| 20260506180533 | 62 | 213 | 2.0 | 7.0 | 0.01 | 0.14 | 0.14 | 88 | 1008.2 |
| 20260506180050 | 62 | 171 | 2.0 | 7.0 | 0.01 | 0.14 | 0.14 | 88 | 1008.2 |
| 20260506175534 | 62 | 195 | 2.0 | 7.0 | 0.01 | 0.14 | 0.14 | 88 | 1008.3 |
| 20260506175031 | 62 | 246 | 3.0 | 7.0 | 0.01 | 0.14 | 0.14 | 88 | 1008.5 |
| 20260506174548 | 62 | 173 | 2.0 | 6.0 | 0.00 | 0.13 | 0.13 | 88 | 1008.6 |
| 20260506174031 | 63 | 193 | 0.0 | 4.0 | 0.01 | 0.13 | 0.13 | 88 | 1008.5 |
| 20260506173531 | 63 | 215 | 1.0 | 7.0 | 0.01 | 0.13 | 0.13 | 88 | 1008.6 |
| 20260506173049 | 63 | 190 | 1.0 | 7.0 | 0.01 | 0.13 | 0.13 | 88 | 1008.7 |
| 20260506172534 | 63 | 210 | 3.0 | 7.0 | 0.02 | 0.13 | 0.13 | 88 | 1008.7 |
| 20260506172034 | 63 | 184 | 2.0 | 6.0 | 0.02 | 0.13 | 0.13 | 89 | 1008.5 |
| 20260506171544 | 63 | 182 | 2.0 | 6.0 | 0.03 | 0.13 | 0.13 | 89 | 1008.7 |
| 20260506171035 | 64 | 278 | 2.0 | 5.0 | 0.03 | 0.13 | 0.13 | 90 | 1008.5 |
| 20260506170534 | 63 | 201 | 1.0 | 5.0 | 0.04 | 0.13 | 0.13 | 90 | 1008.4 |
| 20260506170052 | 63 | 0 | 1.0 | 3.0 | 0.05 | 0.13 | 0.13 | 90 | 1008.4 |
| 20260506165534 | 62 | 202 | 0.0 | 5.0 | 0.06 | 0.13 | 0.13 | 89 | 1008.4 |
| 20260506165033 | 62 | 181 | 1.0 | 6.0 | 0.07 | 0.13 | 0.13 | 89 | 1008.5 |
| 20260506164555 | 62 | 196 | 1.0 | 6.0 | 0.08 | 0.13 | 0.13 | 88 | 1008.6 |
| 20260506164032 | 62 | 210 | 1.0 | 7.0 | 0.08 | 0.12 | 0.12 | 88 | 1008.5 |
| 20260506163532 | 62 | 180 | 1.0 | 7.0 | 0.08 | 0.12 | 0.12 | 88 | 1008.7 |
| 20260506163056 | 62 | 182 | 3.0 | 7.0 | 0.09 | 0.12 | 0.12 | 87 | 1009.0 |
| 20260506162537 | 62 | 172 | 1.0 | 4.0 | 0.08 | 0.11 | 0.11 | 87 | 1009.3 |
| 20260506162034 | 62 | 163 | 1.0 | 5.0 | 0.08 | 0.10 | 0.10 | 87 | 1009.5 |
| 20260506161547 | 62 | 196 | 1.0 | 5.0 | 0.08 | 0.10 | 0.10 | 86 | 1009.7 |
| 20260506161034 | 62 | 185 | 1.0 | 4.0 | 0.08 | 0.10 | 0.10 | 86 | 1009.7 |
| 20260506160534 | 63 | 202 | 2.0 | 4.0 | 0.07 | 0.09 | 0.09 | 85 | 1009.8 |
| 20260506160056 | 63 | 169 | 1.0 | 4.0 | 0.07 | 0.08 | 0.08 | 85 | 1009.9 |
| 20260506155534 | 63 | 211 | 1.0 | 4.0 | 0.07 | 0.07 | 0.07 | 84 | 1009.9 |
| 20260506155034 | 63 | 0 | 0.0 | 4.0 | 0.06 | 0.06 | 0.06 | 84 | 1009.8 |
| 20260506154553 | 64 | 180 | 1.0 | 4.0 | 0.05 | 0.05 | 0.05 | 83 | 1010.1 |
| 20260506154034 | 64 | 198 | 1.0 | 5.0 | 0.04 | 0.04 | 0.04 | 83 | 1010.1 |
| 20260506153534 | 64 | 200 | 1.0 | 5.0 | 0.04 | 0.04 | 0.04 | 82 | 1010.0 |
| 20260506153044 | 64 | 193 | 1.0 | 6.0 | 0.03 | 0.03 | 0.03 | 82 | 1009.9 |
| 20260506152533 | 64 | 198 | 2.0 | 6.0 | 0.03 | 0.03 | 0.03 | 81 | 1009.8 |
| 20260506152036 | 65 | 201 | 1.0 | 6.0 | 0.02 | 0.02 | 0.02 | 81 | 1009.7 |
| 20260506151544 | 65 | 188 | 1.0 | 4.0 | 0.02 | 0.02 | 0.02 | 81 | 1009.7 |
| 20260506151033 | 65 | 192 | 0.0 | 4.0 | 0.02 | 0.02 | 0.02 | 80 | 1009.7 |
| 20260506150533 | 65 | 180 | 0.0 | 3.0 | 0.02 | 0.02 | 0.02 | 79 | 1009.8 |
| 20260506150053 | 65 | 187 | 1.0 | 6.0 | 0.01 | 0.01 | 0.01 | 77 | 1009.9 |
| 20260506145534 | 66 | 183 | 2.0 | 7.0 | 0.00 | 0.00 | 0.00 | 76 | 1009.8 |
| 20260506145035 | 66 | 198 | 4.0 | 8.0 | 0.00 | 0.00 | 0.00 | 74 | 1009.7 |
| 20260506144550 | 66 | 201 | 2.0 | 8.0 | 0.00 | 0.00 | 0.00 | 73 | 1010.0 |
| 20260506144035 | 67 | 194 | 3.0 | 10.0 | 0.00 | 0.00 | 0.00 | 72 | 1010.0 |
| 20260506143534 | 67 | 191 | 2.0 | 10.0 | 0.00 | 0.00 | 0.00 | 71 | 1010.0 |
| 20260506143043 | 67 | 221 | 4.0 | 11.0 | 0.00 | 0.00 | 0.00 | 70 | 1009.9 |
| 20260506142533 | 67 | 169 | 5.0 | 13.0 | 0.00 | 0.00 | 0.00 | 69 | 1009.9 |
| 20260506142030 | 68 | 210 | 6.0 | 13.0 | 0.00 | 0.00 | 0.00 | 69 | 1009.8 |
| 20260506141545 | 68 | 186 | 4.0 | 12.0 | 0.00 | 0.00 | 0.00 | 70 | 1009.9 |
| 20260506141031 | 68 | 159 | 3.0 | 8.0 | 0.00 | 0.00 | 0.00 | 70 | 1009.8 |
| 20260506140535 | 68 | 199 | 4.0 | 10.0 | 0.00 | 0.00 | 0.00 | 71 | 1009.7 |
| 20260506140044 | 67 | 215 | 4.0 | 10.0 | 0.00 | 0.00 | 0.00 | 71 | 1009.4 |
| 20260506135536 | 67 | 186 | 3.0 | 10.0 | 0.00 | 0.00 | 0.00 | 72 | 1009.6 |
| 20260506135036 | 67 | 180 | 2.0 | 8.0 | 0.00 | 0.00 | 0.00 | 72 | 1009.7 |
| 20260506134544 | 67 | 187 | 3.0 | 9.0 | 0.00 | 0.00 | 0.00 | 72 | 1009.7 |
| 20260506134030 | 67 | 207 | 4.0 | 9.0 | 0.00 | 0.00 | 0.00 | 71 | 1009.8 |
| 20260506133530 | 67 | 197 | 2.0 | 8.0 | 0.00 | 0.00 | 0.00 | 72 | 1009.6 |
| 20260506133106 | 67 | 204 | 3.0 | 10.0 | 0.00 | 0.00 | 0.00 | 72 | 1009.7 |
| 20260506132534 | 67 | 171 | 3.0 | 10.0 | 0.00 | 0.00 | 0.00 | 72 | 1009.7 |
| 20260506132034 | 67 | 181 | 1.0 | 8.0 | 0.00 | 0.00 | 0.00 | 72 | 1009.9 |
| 20260506131547 | 67 | 175 | 3.0 | 8.0 | 0.00 | 0.00 | 0.00 | 72 | 1010.0 |
| 20260506131034 | 67 | 136 | 2.0 | 8.0 | 0.00 | 0.00 | 0.00 | 73 | 1009.9 |
| 20260506130533 | 66 | 194 | 2.0 | 10.0 | 0.00 | 0.00 | 0.00 | 73 | 1009.9 |
| 20260506130046 | 66 | 63 | 3.0 | 10.0 | 0.00 | 0.00 | 0.00 | 74 | 1009.9 |
| 20260506125533 | 66 | 203 | 2.0 | 8.0 | 0.00 | 0.00 | 0.00 | 74 | 1009.8 |
| 20260506125033 | 65 | 168 | 3.0 | 9.0 | 0.00 | 0.00 | 0.00 | 74 | 1009.8 |
| 20260506124544 | 65 | 204 | 2.0 | 9.0 | 0.00 | 0.00 | 0.00 | 74 | 1009.9 |
| 20260506124033 | 65 | 186 | 4.0 | 9.0 | 0.00 | 0.00 | 0.00 | 74 | 1009.8 |
| 20260506123535 | 65 | 161 | 3.0 | 7.0 | 0.00 | 0.00 | 0.00 | 74 | 1009.7 |
| 20260506123052 | 65 | 189 | 1.0 | 7.0 | 0.00 | 0.00 | 0.00 | 75 | 1009.7 |
| 20260506122531 | 65 | 156 | 3.0 | 7.0 | 0.00 | 0.00 | 0.00 | 74 | 1009.7 |
| 20260506122033 | 65 | 104 | 2.0 | 8.0 | 0.00 | 0.00 | 0.00 | 75 | 1009.7 |
| 20260506121548 | 65 | 200 | 3.0 | 9.0 | 0.00 | 0.00 | 0.00 | 75 | 1009.8 |
| 20260506121030 | 65 | 178 | 3.0 | 9.0 | 0.00 | 0.00 | 0.00 | 75 | 1009.9 |
| 20260506120534 | 64 | 208 | 3.0 | 7.0 | 0.00 | 0.00 | 0.00 | 75 | 1009.8 |
| 20260506120059 | 64 | 189 | 1.0 | 6.0 | 0.00 | 0.00 | 0.00 | 76 | 1009.9 |
| 20260506115533 | 64 | 176 | 1.0 | 6.0 | 0.00 | 0.00 | 0.00 | 76 | 1009.8 |
| 20260506115033 | 64 | 227 | 2.0 | 7.0 | 0.00 | 0.00 | 0.00 | 76 | 1009.8 |
| 20260506114544 | 64 | 165 | 3.0 | 7.0 | 0.00 | 0.00 | 0.00 | 76 | 1009.8 |
| 20260506114031 | 64 | 202 | 3.0 | 8.0 | 0.00 | 0.00 | 0.00 | 76 | 1009.8 |
| 20260506113532 | 64 | 189 | 3.0 | 8.0 | 0.00 | 0.00 | 0.00 | 76 | 1009.9 |
| 20260506113048 | 64 | 199 | 3.0 | 9.0 | 0.00 | 0.00 | 0.00 | 76 | 1010.0 |
| 20260506112530 | 64 | 166 | 4.0 | 9.0 | 0.00 | 0.00 | 0.00 | 76 | 1010.1 |
| 20260506112030 | 64 | 173 | 3.0 | 10.0 | 0.00 | 0.00 | 0.00 | 76 | 1009.9 |
| 20260506111547 | 64 | 176 | 4.0 | 10.0 | 0.00 | 0.00 | 0.00 | 76 | 1009.7 |
| 20260506111033 | 64 | 94 | 2.0 | 8.0 | 0.00 | 0.00 | 0.00 | 77 | 1009.8 |
| 20260506110534 | 64 | 187 | 3.0 | 8.0 | 0.00 | 0.00 | 0.00 | 77 | 1009.7 |
| 20260506110056 | 64 | 180 | 2.0 | 7.0 | 0.00 | 0.00 | 0.00 | 77 | 1009.8 |
| 20260506105535 | 63 | 189 | 2.0 | 9.0 | 0.00 | 0.00 | 0.00 | 77 | 1009.8 |
| 20260506105033 | 63 | 206 | 3.0 | 9.0 | 0.00 | 0.00 | 0.00 | 77 | 1009.7 |
| 20260506104558 | 63 | 177 | 2.0 | 8.0 | 0.00 | 0.00 | 0.00 | 78 | 1009.7 |
| 20260506104032 | 63 | 175 | 3.0 | 9.0 | 0.00 | 0.00 | 0.00 | 78 | 1009.6 |
| 20260506103534 | 63 | 169 | 2.0 | 9.0 | 0.00 | 0.00 | 0.00 | 78 | 1009.7 |
| 20260506103047 | 63 | 209 | 2.0 | 9.0 | 0.00 | 0.00 | 0.00 | 78 | 1009.5 |
| 20260506102533 | 63 | 223 | 2.0 | 6.0 | 0.00 | 0.00 | 0.00 | 78 | 1009.7 |
| 20260506102034 | 63 | 194 | 1.0 | 5.0 | 0.00 | 0.00 | 0.00 | 78 | 1009.6 |
| 20260506101545 | 63 | 150 | 2.0 | 6.0 | 0.00 | 0.00 | 0.00 | 78 | 1009.6 |
| 20260506101033 | 63 | 163 | 2.0 | 6.0 | 0.00 | 0.00 | 0.00 | 78 | 1009.7 |
| 20260506100533 | 63 | 182 | 2.0 | 5.0 | 0.00 | 0.00 | 0.00 | 78 | 1009.7 |
| 20260506100053 | 63 | 194 | 1.0 | 6.0 | 0.00 | 0.00 | 0.00 | 77 | 1009.7 |
| 20260506095535 | 63 | 163 | 2.0 | 7.0 | 0.00 | 0.00 | 0.00 | 77 | 1009.7 |
| 20260506095030 | 63 | 173 | 2.0 | 7.0 | 0.00 | 0.00 | 0.00 | 77 | 1009.5 |
| 20260506094545 | 63 | 194 | 2.0 | 7.0 | 0.00 | 0.00 | 0.00 | 77 | 1009.5 |
| 20260506094029 | 63 | 180 | 3.0 | 7.0 | 0.00 | 0.00 | 0.00 | 78 | 1009.5 |
| 20260506093529 | 63 | 173 | 2.0 | 6.0 | 0.00 | 0.00 | 0.00 | 78 | 1009.5 |
| 20260506093041 | 63 | 163 | 2.0 | 8.0 | 0.00 | 0.00 | 0.00 | 78 | 1009.5 |
| 20260506092529 | 63 | 206 | 1.0 | 9.0 | 0.00 | 0.00 | 0.00 | 78 | 1009.5 |
| 20260506092029 | 63 | 202 | 3.0 | 9.0 | 0.00 | 0.00 | 0.00 | 78 | 1009.4 |
| 20260506091546 | 63 | 226 | 2.0 | 6.0 | 0.00 | 0.00 | 0.00 | 78 | 1009.6 |
| 20260506091029 | 63 | 182 | 1.0 | 6.0 | 0.00 | 0.00 | 0.00 | 78 | 1009.7 |
| 20260506090528 | 63 | 202 | 0.0 | 6.0 | 0.00 | 0.00 | 0.00 | 78 | 1009.6 |
| 20260506090045 | 63 | 184 | 1.0 | 6.0 | 0.00 | 0.00 | 0.00 | 78 | 1009.7 |
| 20260506085532 | 63 | 180 | 0.0 | 5.0 | 0.00 | 0.00 | 0.00 | 78 | 1009.8 |
| 20260506085029 | 63 | 188 | 1.0 | 5.0 | 0.00 | 0.00 | 0.00 | 77 | 1009.7 |
| 20260506084614 | 64 | 194 | 2.0 | 5.0 | 0.00 | 0.00 | 0.00 | 77 | 1009.7 |
| 20260506084029 | 64 | 167 | 1.0 | 5.0 | 0.00 | 0.00 | 0.00 | 77 | 1009.6 |
| 20260506083532 | 64 | 200 | 1.0 | 6.0 | 0.00 | 0.00 | 0.00 | 77 | 1009.8 |
| 20260506083045 | 64 | 192 | 2.0 | 6.0 | 0.00 | 0.00 | 0.00 | 77 | 1009.8 |
| 20260506082530 | 64 | 202 | 2.0 | 6.0 | 0.00 | 0.00 | 0.00 | 76 | 1009.7 |
| 20260506082029 | 64 | 106 | 2.0 | 7.0 | 0.00 | 0.00 | 0.00 | 76 | 1009.7 |
| 20260506081552 | 64 | 180 | 3.0 | 7.0 | 0.00 | 0.00 | 0.00 | 76 | 1009.8 |
| 20260506081034 | 64 | 192 | 2.0 | 5.0 | 0.00 | 0.00 | 0.00 | 76 | 1009.8 |
| 20260506080531 | 64 | 156 | 1.0 | 7.0 | 0.00 | 0.00 | 0.00 | 75 | 1009.8 |
| 20260506073045 | 65 | 192 | 2.0 | 6.0 | 0.00 | 0.00 | 0.00 | 75 | 1009.9 |
| 20260506072531 | 65 | 190 | 2.0 | 5.0 | 0.00 | 0.00 | 0.00 | 75 | 1009.9 |
| 20260506072030 | 65 | 162 | 2.0 | 5.0 | 0.00 | 0.00 | 0.00 | 75 | 1009.8 |
| 20260506071546 | 65 | 163 | 2.0 | 5.0 | 0.00 | 0.00 | 0.00 | 75 | 1009.9 |
| 20260506071030 | 65 | 189 | 1.0 | 6.0 | 0.00 | 0.00 | 0.00 | 74 | 1010.0 |
| 20260506070530 | 65 | 181 | 2.0 | 8.0 | 0.00 | 0.00 | 0.00 | 74 | 1010.0 |
| 20260506062031 | 65 | 182 | 0.0 | 5.0 | 0.00 | 0.00 | 0.00 | 72 | 1010.3 |
| 20260506061543 | 65 | 173 | 0.0 | 5.0 | 0.00 | 0.00 | 0.00 | 72 | 1010.3 |
| 20260506061031 | 65 | 202 | 1.0 | 5.0 | 0.00 | 0.00 | 0.00 | 72 | 1010.3 |
| 20260506060531 | 65 | 182 | 1.0 | 5.0 | 0.00 | 0.00 | 0.00 | 72 | 1010.3 |
| 20260506051031 | 65 | 188 | 1.0 | 5.0 | 0.00 | 0.00 | 0.00 | 70 | 1010.8 |
| 20260506050530 | 65 | 0 | 1.0 | 5.0 | 0.00 | 0.00 | 0.00 | 69 | 1010.8 |
| 20260506045031 | 65 | 221 | 1.0 | 5.0 | 0.00 | 0.00 | 0.00 | 68 | 1010.8 |
| 20260506044545 | 66 | 166 | 1.0 | 5.0 | 0.00 | 0.00 | 0.00 | 68 | 1010.9 |
| 20260506044030 | 66 | 0 | 1.0 | 4.0 | 0.00 | 0.00 | 0.00 | 68 | 1010.8 |
| 20260506043534 | 66 | 0 | 0.0 | 3.0 | 0.00 | 0.00 | 0.00 | 67 | 1010.8 |
| 20260506043048 | 66 | 0 | 0.0 | 3.0 | 0.00 | 0.00 | 0.00 | 67 | 1010.8 |
| 20260506042535 | 66 | 0 | 0.0 | 3.0 | 0.00 | 0.00 | 0.00 | 66 | 1010.8 |
| 20260506042031 | 66 | 186 | 0.0 | 4.0 | 0.00 | 0.00 | 0.00 | 66 | 1010.9 |
| 20260506041548 | 66 | 145 | 1.0 | 4.0 | 0.00 | 0.00 | 0.00 | 66 | 1010.7 |
| 20260506041031 | 67 | 162 | 2.0 | 4.0 | 0.00 | 0.00 | 0.00 | 65 | 1010.9 |
| 20260506040535 | 67 | 0 | 0.0 | 5.0 | 0.00 | 0.00 | 0.00 | 65 | 1010.8 |
| 20260506040046 | 67 | 0 | 0.0 | 5.0 | 0.00 | 0.00 | 0.00 | 65 | 1010.8 |
| 20260506035535 | 67 | 167 | 1.0 | 4.0 | 0.00 | 0.00 | 0.00 | 64 | 1010.8 |
| 20260506035030 | 67 | 193 | 1.0 | 4.0 | 0.00 | 0.00 | 0.00 | 64 | 1010.7 |
| 20260506034545 | 67 | 187 | 1.0 | 5.0 | 0.00 | 0.00 | 0.00 | 64 | 1010.8 |
| 20260506034034 | 67 | 188 | 1.0 | 5.0 | 0.00 | 0.00 | 0.00 | 64 | 1010.8 |
| 20260506033530 | 67 | 191 | 1.0 | 5.0 | 0.00 | 0.00 | 0.00 | 63 | 1010.7 |
| 20260506033044 | 67 | 203 | 1.0 | 5.0 | 0.00 | 0.00 | 0.00 | 63 | 1010.6 |
| 20260506032531 | 67 | 188 | 2.0 | 5.0 | 0.00 | 0.00 | 0.00 | 63 | 1010.7 |
| 20260506032031 | 68 | 173 | 1.0 | 7.0 | 0.00 | 0.00 | 0.00 | 63 | 1010.7 |
| 20260506031547 | 68 | 0 | 1.0 | 7.0 | 0.00 | 0.00 | 0.00 | 62 | 1010.6 |
| 20260506031030 | 68 | 184 | 1.0 | 7.0 | 0.00 | 0.00 | 0.00 | 62 | 1010.6 |
| 20260506030532 | 68 | 166 | 1.0 | 5.0 | 0.00 | 0.00 | 0.00 | 62 | 1010.7 |
| 20260506030044 | 68 | 0 | 2.0 | 5.0 | 0.00 | 0.00 | 0.00 | 62 | 1010.7 |
| 20260506025530 | 68 | 172 | 2.0 | 6.0 | 0.00 | 0.00 | 0.00 | 61 | 1010.7 |
| 20260506025031 | 68 | 0 | 2.0 | 6.0 | 0.00 | 0.00 | 0.00 | 61 | 1010.8 |
| 20260506024545 | 68 | 194 | 2.0 | 6.0 | 0.00 | 0.00 | 0.00 | 61 | 1010.8 |
| 20260506024030 | 69 | 192 | 2.0 | 6.0 | 0.00 | 0.00 | 0.00 | 61 | 1010.8 |
| 20260506023532 | 69 | 159 | 3.0 | 7.0 | 0.00 | 0.00 | 0.00 | 61 | 1010.8 |
| 20260506023100 | 69 | 187 | 1.0 | 7.0 | 0.00 | 0.00 | 0.00 | 60 | 1010.7 |
| 20260506022530 | 69 | 167 | 2.0 | 6.0 | 0.00 | 0.00 | 0.00 | 60 | 1010.8 |
| 20260506022030 | 69 | 205 | 1.0 | 6.0 | 0.00 | 0.00 | 0.00 | 59 | 1010.7 |
| 20260506021604 | 70 | 193 | 1.0 | 6.0 | 0.00 | 0.00 | 0.00 | 59 | 1010.7 |
| 20260506021035 | 70 | 191 | 2.0 | 6.0 | 0.00 | 0.00 | 0.00 | 58 | 1010.7 |
| 20260506020530 | 70 | 170 | 2.0 | 6.0 | 0.00 | 0.00 | 0.00 | 57 | 1010.7 |
| 20260506020044 | 71 | 205 | 2.0 | 6.0 | 0.00 | 0.00 | 0.00 | 56 | 1010.8 |
| 20260506015531 | 71 | 159 | 0.0 | 3.0 | 0.00 | 0.00 | 0.00 | 55 | 1010.8 |
| 20260506015034 | 71 | 193 | 0.0 | 5.0 | 0.00 | 0.00 | 0.00 | 53 | 1010.8 |
| 20260506014545 | 72 | 184 | 0.0 | 6.0 | 0.00 | 0.00 | 0.00 | 53 | 1010.6 |
| 20260506014030 | 72 | 133 | 2.0 | 6.0 | 0.00 | 0.00 | 0.00 | 52 | 1010.5 |
| 20260506013531 | 72 | 207 | 1.0 | 8.0 | 0.00 | 0.00 | 0.00 | 50 | 1010.4 |
| 20260506013055 | 72 | 207 | 3.0 | 8.0 | 0.00 | 0.00 | 0.00 | 50 | 1010.4 |
| 20260506012531 | 72 | 210 | 2.0 | 8.0 | 0.00 | 0.00 | 0.00 | 49 | 1010.3 |
| 20260506012031 | 73 | 185 | 1.0 | 8.0 | 0.00 | 0.00 | 0.00 | 49 | 1010.3 |
| 20260506011551 | 73 | 189 | 3.0 | 8.0 | 0.00 | 0.00 | 0.00 | 48 | 1010.3 |
| 20260506011030 | 73 | 209 | 1.0 | 7.0 | 0.00 | 0.00 | 0.00 | 47 | 1010.2 |
| 20260506010530 | 73 | 186 | 1.0 | 5.0 | 0.00 | 0.00 | 0.00 | 47 | 1010.0 |
| 20260506010043 | 73 | 204 | 1.0 | 6.0 | 0.00 | 0.00 | 0.00 | 46 | 1009.9 |
| 20260506005530 | 73 | 181 | 3.0 | 11.0 | 0.00 | 0.00 | 0.00 | 46 | 1009.9 |
| 20260506005032 | 73 | 186 | 3.0 | 11.0 | 0.00 | 0.00 | 0.00 | 46 | 1009.9 |
| 20260506004546 | 73 | 202 | 3.0 | 7.0 | 0.00 | 0.00 | 0.00 | 46 | 1009.7 |
| 20260506004030 | 73 | 185 | 2.0 | 7.0 | 0.00 | 0.00 | 0.00 | 46 | 1009.6 |
| 20260506003530 | 73 | 199 | 2.0 | 6.0 | 0.00 | 0.00 | 0.00 | 46 | 1009.7 |
| 20260506003046 | 74 | 207 | 1.0 | 6.0 | 0.00 | 0.00 | 0.00 | 47 | 1009.6 |
| 20260506002529 | 74 | 171 | 3.0 | 6.0 | 0.00 | 0.00 | 0.00 | 46 | 1009.5 |
| 20260506002033 | 74 | 167 | 2.0 | 5.0 | 0.00 | 0.00 | 0.00 | 46 | 1009.5 |
| 20260506001555 | 74 | 179 | 2.0 | 6.0 | 0.00 | 0.00 | 0.00 | 47 | 1009.4 |
| 20260506001033 | 74 | 223 | 2.0 | 6.0 | 0.00 | 0.00 | 0.00 | 46 | 1009.5 |
| 20260506000532 | 74 | 192 | 2.0 | 9.0 | 0.00 | 0.00 | 0.00 | 45 | 1009.5 |
| 20260506000048 | 75 | 203 | 2.0 | 9.0 | 0.00 | 0.00 | 0.00 | 45 | 1009.4 |
| 20260505235535 | 75 | 199 | 2.0 | 6.0 | 0.00 | 0.00 | 0.00 | 45 | 1009.3 |
| 20260505235031 | 75 | 217 | 3.0 | 7.0 | 0.00 | 0.00 | 0.00 | 45 | 1009.3 |
| 20260505234543 | 76 | 178 | 3.0 | 11.0 | 0.00 | 0.00 | 0.00 | 44 | 1009.3 |
| 20260505234031 | 76 | 200 | 3.0 | 11.0 | 0.00 | 0.00 | 0.00 | 44 | 1009.3 |
| 20260505233530 | 76 | 183 | 4.0 | 10.0 | 0.00 | 0.00 | 0.00 | 43 | 1009.3 |
| 20260505233047 | 76 | 210 | 4.0 | 9.0 | 0.00 | 0.00 | 0.00 | 43 | 1009.3 |
| 20260505232535 | 76 | 209 | 5.0 | 9.0 | 0.00 | 0.00 | 0.00 | 42 | 1009.1 |
| 20260505232034 | 77 | 182 | 4.0 | 9.0 | 0.00 | 0.00 | 0.00 | 41 | 1009.1 |
| 20260505231603 | 77 | 169 | 3.0 | 10.0 | 0.00 | 0.00 | 0.00 | 40 | 1008.9 |
| 20260505231033 | 77 | 207 | 4.0 | 10.0 | 0.00 | 0.00 | 0.00 | 39 | 1008.9 |
| 20260505230533 | 77 | 171 | 4.0 | 10.0 | 0.00 | 0.00 | 0.00 | 39 | 1008.8 |
| 20260505230047 | 77 | 199 | 4.0 | 10.0 | 0.00 | 0.00 | 0.00 | 39 | 1008.7 |
| 20260505225534 | 77 | 178 | 4.0 | 9.0 | 0.00 | 0.00 | 0.00 | 38 | 1008.8 |
| 20260505225031 | 77 | 184 | 3.0 | 8.0 | 0.00 | 0.00 | 0.00 | 38 | 1008.7 |
| 20260505224542 | 77 | 193 | 2.0 | 7.0 | 0.00 | 0.00 | 0.00 | 38 | 1008.8 |
| 20260505224033 | 78 | 167 | 2.0 | 7.0 | 0.00 | 0.00 | 0.00 | 38 | 1008.8 |
| 20260505223533 | 78 | 178 | 2.0 | 7.0 | 0.00 | 0.00 | 0.00 | 37 | 1008.8 |
| 20260505223051 | 78 | 195 | 3.0 | 7.0 | 0.00 | 0.00 | 0.00 | 37 | 1008.7 |
| 20260505222533 | 78 | 178 | 3.0 | 10.0 | 0.00 | 0.00 | 0.00 | 37 | 1008.8 |
| 20260505222034 | 78 | 150 | 4.0 | 10.0 | 0.00 | 0.00 | 0.00 | 36 | 1008.7 |
| 20260505221543 | 78 | 193 | 4.0 | 8.0 | 0.00 | 0.00 | 0.00 | 36 | 1008.7 |
| 20260505221031 | 78 | 202 | 2.0 | 8.0 | 0.00 | 0.00 | 0.00 | 36 | 1008.7 |
| 20260505220534 | 78 | 171 | 3.0 | 8.0 | 0.00 | 0.00 | 0.00 | 35 | 1008.8 |
| 20260505220051 | 78 | 191 | 3.0 | 11.0 | 0.00 | 0.00 | 0.00 | 36 | 1008.8 |
| 20260505215534 | 79 | 201 | 4.0 | 11.0 | 0.00 | 0.00 | 0.00 | 36 | 1008.7 |
| 20260505215034 | 79 | 182 | 3.0 | 11.0 | 0.00 | 0.00 | 0.00 | 35 | 1008.7 |
| 20260505214554 | 79 | 219 | 5.0 | 11.0 | 0.00 | 0.00 | 0.00 | 34 | 1008.7 |
| 20260505214034 | 79 | 205 | 2.0 | 9.0 | 0.00 | 0.00 | 0.00 | 34 | 1008.7 |
| 20260505213533 | 79 | 144 | 3.0 | 9.0 | 0.00 | 0.00 | 0.00 | 34 | 1008.4 |
| 20260505213044 | 79 | 184 | 4.0 | 10.0 | 0.00 | 0.00 | 0.00 | 34 | 1008.3 |
| 20260505212534 | 80 | 165 | 4.0 | 11.0 | 0.00 | 0.00 | 0.00 | 32 | 1008.2 |
| 20260505212033 | 80 | 167 | 6.0 | 11.0 | 0.00 | 0.00 | 0.00 | 32 | 1008.3 |
| 20260505211546 | 80 | 192 | 4.0 | 9.0 | 0.00 | 0.00 | 0.00 | 33 | 1008.2 |
| 20260505211032 | 80 | 114 | 4.0 | 12.0 | 0.00 | 0.00 | 0.00 | 32 | 1008.4 |
| 20260505210534 | 80 | 130 | 4.0 | 14.0 | 0.00 | 0.00 | 0.00 | 31 | 1008.3 |
| 20260505210045 | 80 | 202 | 4.0 | 15.0 | 0.00 | 0.00 | 0.00 | 31 | 1008.3 |
| 20260505205532 | 81 | 169 | 5.0 | 15.0 | 0.00 | 0.00 | 0.00 | 31 | 1008.3 |
| 20260505205035 | 81 | 172 | 3.0 | 9.0 | 0.00 | 0.00 | 0.00 | 31 | 1008.3 |
| 20260505204544 | 81 | 212 | 5.0 | 10.0 | 0.00 | 0.00 | 0.00 | 31 | 1008.3 |
| 20260505204034 | 81 | 202 | 4.0 | 10.0 | 0.00 | 0.00 | 0.00 | 31 | 1008.3 |
| 20260505203535 | 81 | 213 | 3.0 | 11.0 | 0.00 | 0.00 | 0.00 | 32 | 1008.3 |
| 20260505203105 | 81 | 260 | 4.0 | 11.0 | 0.00 | 0.00 | 0.00 | 31 | 1008.3 |
| 20260505202534 | 81 | 99 | 3.0 | 12.0 | 0.00 | 0.00 | 0.00 | 33 | 1008.1 |
| 20260505202035 | 81 | 192 | 4.0 | 13.0 | 0.00 | 0.00 | 0.00 | 32 | 1008.2 |
| 20260505201547 | 81 | 186 | 5.0 | 13.0 | 0.00 | 0.00 | 0.00 | 35 | 1008.2 |
| 20260505201033 | 81 | 190 | 4.0 | 13.0 | 0.00 | 0.00 | 0.00 | 36 | 1008.3 |
| 20260505200532 | 81 | 190 | 6.0 | 13.0 | 0.00 | 0.00 | 0.00 | 34 | 1008.4 |
| 20260505200049 | 81 | 245 | 5.0 | 15.0 | 0.00 | 0.00 | 0.00 | 35 | 1008.4 |
| 20260505195535 | 81 | 165 | 5.0 | 15.0 | 0.00 | 0.00 | 0.00 | 34 | 1008.4 |
| 20260505195034 | 81 | 193 | 4.0 | 14.0 | 0.00 | 0.00 | 0.00 | 36 | 1008.4 |
| 20260505194542 | 81 | 175 | 7.0 | 14.0 | 0.00 | 0.00 | 0.00 | 35 | 1008.4 |
| 20260505194033 | 81 | 202 | 6.0 | 14.0 | 0.00 | 0.00 | 0.00 | 35 | 1008.5 |
| 20260505193536 | 81 | 157 | 4.0 | 14.0 | 0.00 | 0.00 | 0.00 | 38 | 1008.6 |
| 20260505193046 | 81 | 170 | 6.0 | 12.0 | 0.00 | 0.00 | 0.00 | 36 | 1008.5 |